createdAt,value
2022-12-14T00:01:49.309Z,20.57
2022-12-14T00:04:17.189Z,18.77
2022-12-14T00:06:44.521Z,18.57
2022-12-14T00:09:11.686Z,20.17
2022-12-14T00:11:38.858Z,20.90
2022-12-14T00:14:06.226Z,19.33
2022-12-14T00:16:35.118Z,19.07
2022-12-14T00:19:03.085Z,20.87
2022-12-14T00:21:30.267Z,21.03
2022-12-14T00:23:59.420Z,19.67
2022-12-14T00:26:32.148Z,18.77
2022-12-14T00:29:01.214Z,20.63
2022-12-14T00:31:29.300Z,18.03
2022-12-14T00:33:56.630Z,18.67
2022-12-14T00:36:24.349Z,20.67
2022-12-14T00:38:51.649Z,19.77
2022-12-14T00:41:19.790Z,20.40
2022-12-14T00:43:49.124Z,19.17
2022-12-14T00:46:17.032Z,18.83
2022-12-14T00:48:44.735Z,19.07
2022-12-14T00:51:14.578Z,19.03
2022-12-14T00:53:42.000Z,19.70
2022-12-14T00:56:09.292Z,20.93
2022-12-14T00:58:36.479Z,23.10
2022-12-14T01:01:06.300Z,22.43
2022-12-14T01:03:34.729Z,21.53
2022-12-14T01:06:02.374Z,20.20
2022-12-14T01:08:36.294Z,20.67
2022-12-14T01:11:05.931Z,19.73
2022-12-14T01:13:33.103Z,19.70
2022-12-14T01:16:11.385Z,18.93
2022-12-14T01:18:40.930Z,20.50
2022-12-14T01:21:19.956Z,22.73
2022-12-14T01:23:48.407Z,21.17
2022-12-14T01:26:17.576Z,20.03
2022-12-14T01:28:46.591Z,19.37
2022-12-14T01:31:16.832Z,21.70
2022-12-14T01:33:45.074Z,19.13
2022-12-14T01:36:14.816Z,18.40
2022-12-14T01:38:42.418Z,21.33
2022-12-14T01:41:25.750Z,18.70
2022-12-14T01:44:02.322Z,19.60
2022-12-14T01:46:29.527Z,19.93
2022-12-14T01:49:11.774Z,22.20
2022-12-14T01:51:41.187Z,20.50
2022-12-14T01:54:11.604Z,21.53
2022-12-14T01:56:43.587Z,20.90
2022-12-14T01:59:17.264Z,19.97
2022-12-14T02:01:44.981Z,21.10
2022-12-14T02:04:18.664Z,21.17
2022-12-14T02:06:48.957Z,19.50
2022-12-14T02:09:21.196Z,20.87
2022-12-14T02:12:29.343Z,20.23
2022-12-14T02:14:57.454Z,21.30
2022-12-14T02:17:24.708Z,21.80
2022-12-14T02:19:52.119Z,20.57
2022-12-14T02:22:36.517Z,20.93
2022-12-14T02:25:13.768Z,21.73
2022-12-14T02:27:50.179Z,22.50
2022-12-14T02:30:23.698Z,19.37
2022-12-14T02:33:09.762Z,23.20
2022-12-14T02:36:10.924Z,20.23
2022-12-14T02:39:04.491Z,20.67
2022-12-14T02:42:00.369Z,22.20
2022-12-14T02:44:56.524Z,21.67
2022-12-14T02:47:39.524Z,21.17
2022-12-14T02:50:24.818Z,22.43
2022-12-14T02:52:51.998Z,21.90
2022-12-14T02:55:43.707Z,21.57
2022-12-14T02:58:24.017Z,21.60
2022-12-14T03:00:53.199Z,21.20
2022-12-14T03:03:20.495Z,20.43
2022-12-14T03:06:02.478Z,22.20
2022-12-14T03:08:34.378Z,22.17
2022-12-14T03:11:05.423Z,20.93
2022-12-14T03:13:49.269Z,19.33
2022-12-14T03:16:22.150Z,21.10
2022-12-14T03:19:04.818Z,21.13
2022-12-14T03:21:36.774Z,21.53
2022-12-14T03:24:15.010Z,22.40
2022-12-14T03:26:56.488Z,23.00
2022-12-14T03:29:29.452Z,21.70
2022-12-14T03:32:02.086Z,21.47
2022-12-14T03:34:39.367Z,23.37
2022-12-14T03:37:32.403Z,21.10
2022-12-14T03:39:59.752Z,23.30
2022-12-14T03:42:53.120Z,21.37
2022-12-14T03:45:39.113Z,21.20
2022-12-14T03:48:19.447Z,22.27
2022-12-14T03:51:00.984Z,21.87
2022-12-14T03:53:48.523Z,22.47
2022-12-14T03:56:42.475Z,22.77
2022-12-14T03:59:19.673Z,21.83
2022-12-14T04:02:01.460Z,21.83
2022-12-14T04:05:00.585Z,24.07
2022-12-14T04:08:06.312Z,22.97
2022-12-14T04:11:03.018Z,21.90
2022-12-14T04:13:55.399Z,23.60
2022-12-14T04:16:46.435Z,21.90
2022-12-14T04:19:22.963Z,24.27
2022-12-14T04:21:56.930Z,23.27
2022-12-14T04:25:03.679Z,22.93
2022-12-14T04:27:44.871Z,23.03
2022-12-14T04:30:13.177Z,23.13
2022-12-14T04:32:51.578Z,24.57
2022-12-14T04:35:35.328Z,21.43
2022-12-14T04:38:10.382Z,21.43
2022-12-14T04:40:44.878Z,23.10
2022-12-14T04:43:16.314Z,22.67
2022-12-14T04:45:54.748Z,24.30
2022-12-14T04:48:34.269Z,21.67
2022-12-14T04:51:15.286Z,22.73
2022-12-14T04:53:46.271Z,22.13
2022-12-14T04:56:22.066Z,24.33
2022-12-14T04:58:49.515Z,21.60
2022-12-14T05:01:41.059Z,23.20
2022-12-14T05:04:42.756Z,23.63
2022-12-14T05:07:23.758Z,22.33
2022-12-14T05:09:50.880Z,24.17
2022-12-14T05:12:41.034Z,23.73
2022-12-14T05:15:15.615Z,23.83
2022-12-14T05:17:43.163Z,22.47
2022-12-14T05:20:16.256Z,21.73
2022-12-14T05:22:43.471Z,22.90
2022-12-14T05:25:10.755Z,24.97
2022-12-14T05:27:38.031Z,22.13
2022-12-14T05:30:09.007Z,23.30
2022-12-14T05:32:36.271Z,22.70
2022-12-14T05:35:04.645Z,22.87
2022-12-14T05:37:32.218Z,24.53
2022-12-14T05:39:59.801Z,23.57
2022-12-14T05:42:26.979Z,24.30
2022-12-14T05:44:54.635Z,22.93
2022-12-14T05:47:21.826Z,22.73
2022-12-14T05:49:49.350Z,24.03
2022-12-14T05:52:17.400Z,26.17
2022-12-14T05:54:44.770Z,24.23
2022-12-14T05:57:12.909Z,25.40
2022-12-14T05:59:40.135Z,24.27
2022-12-14T06:02:07.861Z,25.50
2022-12-14T06:04:35.300Z,25.03
2022-12-14T06:07:02.555Z,21.97
2022-12-14T06:09:29.735Z,22.90
2022-12-14T06:11:56.894Z,24.07
2022-12-14T06:14:25.252Z,25.30
2022-12-14T06:16:52.753Z,24.17
2022-12-14T06:19:20.330Z,24.90
2022-12-14T06:21:47.570Z,24.73
2022-12-14T06:24:14.816Z,23.20
2022-12-14T06:26:42.167Z,24.23
2022-12-14T06:29:19.947Z,26.53
2022-12-14T06:31:49.324Z,26.63
2022-12-14T06:34:18.082Z,25.10
2022-12-14T06:36:47.059Z,27.30
2022-12-14T06:39:16.321Z,25.97
2022-12-14T06:41:44.402Z,26.00
2022-12-14T06:44:14.038Z,30.90
2022-12-14T06:46:42.767Z,29.57
2022-12-14T06:49:14.886Z,25.53
2022-12-14T06:51:42.661Z,27.27
2022-12-14T06:54:11.995Z,28.73
2022-12-14T06:56:39.534Z,26.73
2022-12-14T06:59:08.653Z,27.67
2022-12-14T07:01:37.022Z,31.07
2022-12-14T07:04:04.682Z,29.00
2022-12-14T07:06:34.903Z,27.53
2022-12-14T07:09:03.540Z,27.50
2022-12-14T07:11:31.835Z,29.13
2022-12-14T07:14:05.880Z,25.33
2022-12-14T07:16:35.418Z,30.13
2022-12-14T07:19:03.811Z,30.47
2022-12-14T07:21:30.980Z,28.10
2022-12-14T07:24:00.471Z,30.67
2022-12-14T07:26:28.612Z,32.30
2022-12-14T07:28:57.669Z,32.83
2022-12-14T07:31:27.381Z,35.37
2022-12-14T07:33:56.925Z,26.90
2022-12-14T07:36:25.978Z,29.10
2022-12-14T07:38:55.640Z,28.33
2022-12-14T07:41:29.307Z,27.73
2022-12-14T07:43:58.201Z,27.90
2022-12-14T07:46:28.122Z,29.53
2022-12-14T07:48:57.435Z,30.17
2022-12-14T07:51:37.274Z,31.30
2022-12-14T07:54:06.370Z,27.30
2022-12-14T07:56:36.428Z,26.70
2022-12-14T07:59:05.189Z,30.13
2022-12-14T08:01:35.531Z,32.80
2022-12-14T08:04:11.331Z,30.03
2022-12-14T08:06:39.691Z,29.53
2022-12-14T08:09:08.839Z,27.83
2022-12-14T08:11:37.081Z,27.70
2022-12-14T08:14:07.871Z,29.90
2022-12-14T08:16:35.356Z,28.97
2022-12-14T08:19:02.650Z,26.97
2022-12-14T08:21:30.116Z,27.83
2022-12-14T08:23:57.904Z,26.33
2022-12-14T08:26:33.337Z,28.30
2022-12-14T08:29:03.722Z,32.37
2022-12-14T08:31:31.579Z,41.73
2022-12-14T08:34:00.238Z,53.17
2022-12-14T08:36:34.092Z,34.47
2022-12-14T08:39:04.956Z,28.00
2022-12-14T08:41:32.586Z,29.83
2022-12-14T08:44:00.969Z,28.63
2022-12-14T08:46:30.165Z,27.60
2022-12-14T08:48:59.264Z,27.00
2022-12-14T08:51:27.791Z,28.30
2022-12-14T08:53:56.086Z,31.30
2022-12-14T08:56:25.582Z,30.40
2022-12-14T08:58:52.781Z,27.43
2022-12-14T09:01:32.157Z,29.67
2022-12-14T09:04:08.425Z,43.47
2022-12-14T09:06:38.518Z,37.37
2022-12-14T09:09:10.717Z,27.23
2022-12-14T09:11:40.716Z,27.17
2022-12-14T09:14:07.917Z,30.30
2022-12-14T09:16:35.228Z,26.77
2022-12-14T09:19:02.480Z,24.83
2022-12-14T09:21:31.318Z,25.40
2022-12-14T09:23:59.947Z,28.97
2022-12-14T09:26:27.629Z,26.47
2022-12-14T09:28:56.609Z,30.03
2022-12-14T09:31:26.421Z,27.63
2022-12-14T09:33:54.786Z,35.87
2022-12-14T09:36:24.658Z,38.90
2022-12-14T09:38:55.092Z,33.70
2022-12-14T09:41:35.804Z,27.23
2022-12-14T09:44:38.245Z,25.43
2022-12-14T09:47:19.095Z,29.60
2022-12-14T09:49:50.958Z,29.90
2022-12-14T09:52:40.621Z,28.07
2022-12-14T09:55:24.091Z,29.53
2022-12-14T09:57:57.016Z,27.17
2022-12-14T10:00:24.347Z,28.97
2022-12-14T10:03:02.897Z,27.43
2022-12-14T10:05:51.583Z,27.40
2022-12-14T10:08:55.734Z,26.10
2022-12-14T10:11:28.914Z,26.43
2022-12-14T10:14:11.001Z,27.37
2022-12-14T10:16:56.770Z,25.77
2022-12-14T10:19:38.891Z,25.83
2022-12-14T10:22:13.399Z,27.97
2022-12-14T10:24:59.084Z,31.73
2022-12-14T10:27:42.363Z,28.27
2022-12-14T10:30:20.924Z,31.00
2022-12-14T10:32:53.882Z,29.20
2022-12-14T10:35:54.843Z,28.00
2022-12-14T10:38:46.246Z,26.03
2022-12-14T10:41:41.047Z,27.40
2022-12-14T10:44:32.776Z,35.43
2022-12-14T10:47:10.031Z,28.27
2022-12-14T10:49:41.555Z,25.63
2022-12-14T10:52:17.693Z,24.67
2022-12-14T10:54:55.616Z,26.20
2022-12-14T10:57:26.617Z,25.40
2022-12-14T11:00:07.793Z,30.23
2022-12-14T11:02:43.824Z,27.00
2022-12-14T11:05:17.198Z,26.80
2022-12-14T11:07:45.811Z,27.40
2022-12-14T11:10:16.223Z,23.20
2022-12-14T11:12:53.785Z,25.93
2022-12-14T11:15:34.812Z,25.90
2022-12-14T11:18:31.514Z,28.17
2022-12-14T11:21:02.394Z,25.13
2022-12-14T11:23:36.803Z,30.33
2022-12-14T11:26:07.596Z,25.23
2022-12-14T11:28:39.805Z,27.43
2022-12-14T11:31:14.065Z,23.73
2022-12-14T11:33:50.393Z,23.03
2022-12-14T11:36:24.865Z,28.73
2022-12-14T11:39:19.276Z,31.27
2022-12-14T11:42:01.305Z,27.03
2022-12-14T11:44:33.079Z,28.63
2022-12-14T11:47:00.415Z,23.90
2022-12-14T11:49:42.362Z,27.10
2022-12-14T11:52:13.234Z,28.50
2022-12-14T11:54:43.183Z,22.87
2022-12-14T11:57:31.597Z,20.77
2022-12-14T12:00:06.396Z,24.53
2022-12-14T12:02:35.515Z,26.07
2022-12-14T12:05:11.265Z,24.93
2022-12-14T12:07:50.720Z,25.70
2022-12-14T12:10:28.096Z,27.27
2022-12-14T12:13:00.798Z,24.43
2022-12-14T12:15:43.257Z,23.83
2022-12-14T12:18:26.443Z,25.33
2022-12-14T12:21:12.281Z,27.60
2022-12-14T12:23:48.038Z,25.17
2022-12-14T12:26:23.407Z,35.77
2022-12-14T12:28:56.926Z,30.87
2022-12-14T12:31:33.236Z,31.10
2022-12-14T12:34:16.938Z,27.83
2022-12-14T12:37:17.081Z,28.27
2022-12-14T12:39:37.001Z,32.10
2022-12-14T12:42:26.648Z,29.67
2022-12-14T12:45:30.060Z,29.33
2022-12-14T12:48:14.456Z,30.27
2022-12-14T12:50:49.883Z,26.67
2022-12-14T12:53:40.703Z,29.67
2022-12-14T12:56:16.876Z,29.77
2022-12-14T12:58:52.145Z,35.57
2022-12-14T13:01:25.709Z,29.07
2022-12-14T13:04:01.725Z,26.77
2022-12-14T13:06:40.619Z,28.10
2022-12-14T13:09:35.038Z,32.20
2022-12-14T13:12:03.355Z,30.37
2022-12-14T13:14:38.082Z,33.17
2022-12-14T13:17:13.871Z,35.40
2022-12-14T13:19:52.680Z,28.23
2022-12-14T13:22:28.474Z,32.00
2022-12-14T13:24:59.908Z,28.10
2022-12-14T13:27:51.127Z,30.83
2022-12-14T13:30:22.697Z,31.60
2022-12-14T13:33:07.672Z,26.77
2022-12-14T13:35:46.768Z,28.33
2022-12-14T13:38:50.087Z,27.63
2022-12-14T13:41:39.287Z,31.97
2022-12-14T13:44:41.956Z,30.83
2022-12-14T13:47:21.917Z,31.10
2022-12-14T13:50:33.685Z,30.20
2022-12-14T13:52:46.936Z,33.10
2022-12-14T13:55:27.443Z,31.20
2022-12-14T13:58:22.570Z,34.60
2022-12-14T14:00:53.855Z,31.60
2022-12-14T14:03:35.984Z,31.20
2022-12-14T14:06:16.194Z,32.23
2022-12-14T14:08:45.294Z,28.80
2022-12-14T14:11:36.569Z,30.93
2022-12-14T14:14:18.355Z,31.87
2022-12-14T14:17:01.816Z,32.77
2022-12-14T14:19:39.304Z,26.90
2022-12-14T14:22:35.431Z,39.60
2022-12-14T14:25:34.537Z,43.57
2022-12-14T14:28:01.752Z,35.27
2022-12-14T14:30:36.899Z,37.00
2022-12-14T14:33:46.072Z,40.93
2022-12-14T14:36:17.436Z,37.67
2022-12-14T14:38:45.515Z,34.80
2022-12-14T14:41:23.506Z,34.90
2022-12-14T14:43:54.920Z,41.57
2022-12-14T14:46:40.820Z,44.80
2022-12-14T14:49:38.556Z,42.70
2022-12-14T14:52:37.667Z,36.37
2022-12-14T14:55:52.690Z,37.17
2022-12-14T14:58:34.713Z,44.27
2022-12-14T15:01:12.545Z,46.23
2022-12-14T15:03:49.825Z,42.20
2022-12-14T15:06:22.945Z,48.33
2022-12-14T15:08:56.807Z,45.63
2022-12-14T15:11:26.573Z,54.93
2022-12-14T15:14:00.900Z,35.30
2022-12-14T15:16:43.254Z,38.70
2022-12-14T15:19:33.648Z,45.37
2022-12-14T15:22:05.251Z,48.83
2022-12-14T15:24:42.779Z,51.53
2022-12-14T15:27:11.540Z,38.07
2022-12-14T15:29:38.835Z,42.17
2022-12-14T15:32:06.118Z,43.23
2022-12-14T15:34:33.395Z,46.00
2022-12-14T15:37:00.569Z,51.30
2022-12-14T15:39:30.380Z,54.23
2022-12-14T15:42:24.282Z,48.07
2022-12-14T15:44:53.899Z,52.03
2022-12-14T15:47:30.063Z,44.87
2022-12-14T15:50:27.956Z,68.97
2022-12-14T15:52:59.608Z,112.27
2022-12-14T15:55:40.151Z,68.20
2022-12-14T15:58:23.111Z,72.60
2022-12-14T16:00:52.675Z,53.20
2022-12-14T16:03:31.786Z,57.37
2022-12-14T16:06:00.440Z,58.73
2022-12-14T16:08:30.429Z,54.20
2022-12-14T16:11:00.442Z,53.77
2022-12-14T16:13:34.168Z,55.00
2022-12-14T16:16:09.017Z,47.70
2022-12-14T16:18:44.112Z,51.40
2022-12-14T16:21:33.364Z,56.10
2022-12-14T16:24:20.115Z,52.47
2022-12-14T16:26:56.300Z,60.13
2022-12-14T16:29:28.431Z,54.47
2022-12-14T16:32:15.960Z,56.73
2022-12-14T16:34:58.937Z,42.87
2022-12-14T16:37:34.702Z,50.73
2022-12-14T16:40:01.987Z,51.53
2022-12-14T16:42:32.178Z,52.80
2022-12-14T16:44:59.685Z,52.30
2022-12-14T16:47:28.725Z,60.30
2022-12-14T16:49:57.053Z,50.13
2022-12-14T16:52:35.388Z,56.13
2022-12-14T16:55:17.641Z,49.07
2022-12-14T16:57:47.635Z,71.47
2022-12-14T17:00:23.739Z,51.77
2022-12-14T17:03:06.480Z,38.57
2022-12-14T17:05:39.968Z,56.00
2022-12-14T17:08:08.101Z,47.10
2022-12-14T17:10:35.359Z,47.13
2022-12-14T17:13:03.750Z,51.10
2022-12-14T17:15:34.212Z,58.90
2022-12-14T17:18:03.934Z,48.17
2022-12-14T17:20:36.141Z,45.60
2022-12-14T17:23:06.177Z,44.03
2022-12-14T17:25:33.638Z,41.97
2022-12-14T17:28:00.972Z,43.17
2022-12-14T17:30:28.463Z,36.37
2022-12-14T17:32:55.986Z,32.77
2022-12-14T17:35:26.882Z,34.17
2022-12-14T17:37:54.201Z,34.67
2022-12-14T17:40:22.375Z,32.77
2022-12-14T17:42:52.635Z,32.40
2022-12-14T17:45:25.929Z,34.47
2022-12-14T17:47:53.368Z,35.23
2022-12-14T17:50:21.361Z,37.47
2022-12-14T17:52:50.281Z,36.07
2022-12-14T17:55:20.513Z,34.37
2022-12-14T17:57:48.587Z,33.80
2022-12-14T18:00:36.718Z,31.40
2022-12-14T18:03:04.780Z,32.43
2022-12-14T18:05:32.553Z,36.83
2022-12-14T18:08:00.000Z,37.87
2022-12-14T18:10:27.447Z,41.87
2022-12-14T18:12:55.499Z,33.30
2022-12-14T18:15:27.130Z,35.20
2022-12-14T18:17:54.584Z,36.37
2022-12-14T18:20:23.550Z,37.03
2022-12-14T18:22:51.786Z,37.83
2022-12-14T18:25:31.697Z,36.03
2022-12-14T18:28:00.602Z,33.97
2022-12-14T18:30:32.108Z,35.23
2022-12-14T18:33:04.114Z,38.00
2022-12-14T18:35:33.483Z,39.40
2022-12-14T18:38:00.678Z,38.97
2022-12-14T18:40:29.441Z,36.70
2022-12-14T18:42:57.063Z,38.63
2022-12-14T18:45:26.659Z,36.43
2022-12-14T18:47:54.586Z,36.13
2022-12-14T18:50:22.561Z,36.53
2022-12-14T18:52:50.094Z,36.27
2022-12-14T18:55:23.555Z,33.37
2022-12-14T18:57:53.722Z,36.80
2022-12-14T19:00:23.020Z,38.67
2022-12-14T19:02:51.040Z,41.83
2022-12-14T19:05:25.915Z,39.17
2022-12-14T19:07:53.672Z,36.63
2022-12-14T19:10:23.593Z,34.37
2022-12-14T19:12:51.216Z,32.10
2022-12-14T19:15:22.131Z,30.30
2022-12-14T19:17:49.827Z,28.63
2022-12-14T19:20:18.401Z,29.57
2022-12-14T19:22:47.259Z,26.40
2022-12-14T19:25:15.774Z,30.57
2022-12-14T19:28:25.647Z,27.90
2022-12-14T19:30:34.603Z,27.53
2022-12-14T19:33:02.050Z,23.90
2022-12-14T19:35:29.385Z,25.30
2022-12-14T19:37:56.834Z,24.40
2022-12-14T19:40:24.743Z,23.10
2022-12-14T19:42:52.239Z,22.57
2022-12-14T19:45:19.735Z,24.53
2022-12-14T19:47:47.232Z,26.40
2022-12-14T19:50:15.712Z,22.50
2022-12-14T19:52:44.012Z,23.37
2022-12-14T19:55:12.323Z,23.47
2022-12-14T19:57:40.889Z,23.47
2022-12-14T20:00:09.672Z,23.97
2022-12-14T20:02:40.228Z,24.97
2022-12-14T20:05:08.319Z,26.77
2022-12-14T20:07:41.882Z,22.53
2022-12-14T20:10:11.057Z,23.37
2022-12-14T20:12:38.710Z,21.70
2022-12-14T20:15:06.537Z,22.80
2022-12-14T20:17:34.010Z,19.37
2022-12-14T20:20:01.670Z,27.70
2022-12-14T20:22:29.190Z,18.80
2022-12-14T20:24:56.769Z,19.97
2022-12-14T20:27:24.411Z,18.57
2022-12-14T20:29:51.968Z,16.93
2022-12-14T20:32:19.352Z,20.00
2022-12-14T20:34:46.765Z,17.80
2022-12-14T20:37:14.253Z,16.90
2022-12-14T20:39:41.599Z,17.47
2022-12-14T20:42:09.025Z,13.83
2022-12-14T20:44:36.404Z,14.97
2022-12-14T20:47:03.909Z,15.50
2022-12-14T20:49:32.895Z,15.30
2022-12-14T20:52:00.199Z,16.07
2022-12-14T20:54:28.389Z,13.70
2022-12-14T20:56:57.153Z,14.23
2022-12-14T20:59:24.448Z,15.33
2022-12-14T21:01:55.758Z,15.70
2022-12-14T21:04:23.703Z,16.37
2022-12-14T21:06:51.002Z,14.77
2022-12-14T21:09:18.441Z,14.93
2022-12-14T21:12:06.567Z,14.47
2022-12-14T21:14:35.803Z,16.70
2022-12-14T21:17:04.539Z,16.23
2022-12-14T21:19:32.668Z,15.83
2022-12-14T21:21:59.938Z,17.77
2022-12-14T21:27:20.327Z,16.97
2022-12-14T21:29:47.912Z,15.47
2022-12-14T21:32:16.641Z,18.40
2022-12-14T21:34:44.403Z,17.30
2022-12-14T21:37:12.227Z,17.63
2022-12-14T21:39:39.884Z,17.73
2022-12-14T21:42:10.505Z,19.53
2022-12-14T21:44:38.262Z,20.17
2022-12-14T21:47:08.764Z,17.77
2022-12-14T21:49:37.306Z,17.83
2022-12-14T21:52:07.511Z,21.47
2022-12-14T21:54:35.714Z,17.73
2022-12-14T21:57:21.523Z,16.10
2022-12-14T21:59:48.901Z,19.13
2022-12-14T22:02:21.849Z,16.93
2022-12-14T22:04:49.930Z,16.63
2022-12-14T22:07:19.176Z,15.10
2022-12-14T22:09:49.539Z,16.03
2022-12-14T22:12:18.224Z,15.50
2022-12-14T22:14:45.422Z,16.30
2022-12-14T22:17:14.596Z,15.90
2022-12-14T22:19:41.798Z,17.40
2022-12-14T22:22:17.978Z,15.87
2022-12-14T22:24:48.482Z,15.93
2022-12-14T22:27:15.692Z,16.90
2022-12-14T22:29:42.838Z,16.53
2022-12-14T22:32:11.962Z,16.03
2022-12-14T22:34:39.668Z,17.43
2022-12-14T22:37:06.870Z,18.07
2022-12-14T22:39:34.355Z,20.07
2022-12-14T22:42:01.546Z,17.70
2022-12-14T22:44:28.717Z,18.27
2022-12-14T22:46:55.899Z,20.90
2022-12-14T22:49:23.046Z,19.30
2022-12-14T22:51:50.464Z,19.00
2022-12-14T22:54:27.585Z,18.57
2022-12-14T22:57:04.259Z,20.53
2022-12-14T22:59:41.695Z,19.77
2022-12-14T23:02:09.529Z,19.33
2022-12-14T23:04:37.891Z,20.27
2022-12-14T23:07:05.220Z,20.60
2022-12-14T23:09:52.388Z,18.37
2022-12-14T23:12:38.367Z,22.07
2022-12-14T23:15:24.692Z,20.30
2022-12-14T23:18:14.323Z,19.80
2022-12-14T23:20:59.915Z,18.77
2022-12-14T23:23:45.764Z,18.60
2022-12-14T23:26:31.801Z,19.83
2022-12-14T23:29:17.602Z,20.47
2022-12-14T23:32:03.324Z,20.20
2022-12-14T23:34:49.192Z,20.03
2022-12-14T23:37:35.179Z,21.20
2022-12-14T23:40:21.067Z,20.23
2022-12-14T23:43:08.141Z,20.13
2022-12-14T23:45:53.750Z,19.93
2022-12-14T23:48:39.731Z,20.90
2022-12-14T23:51:25.763Z,20.80
2022-12-14T23:54:11.717Z,19.60
2022-12-14T23:56:57.519Z,21.27
2022-12-14T23:59:43.393Z,24.07
